createdAt,value
2019-04-22T00:01:30.789Z,2.60
2019-04-22T00:04:03.849Z,3.00
2019-04-22T00:06:49.952Z,2.67
2019-04-22T00:09:24.084Z,3.10
2019-04-22T00:12:00.412Z,2.90
2019-04-22T00:14:24.246Z,2.62
2019-04-22T00:17:01.851Z,3.37
2019-04-22T00:19:36.021Z,3.02
2019-04-22T00:22:08.028Z,2.50
2019-04-22T00:24:31.369Z,2.72
2019-04-22T00:27:03.873Z,2.75
2019-04-22T00:29:50.235Z,2.45
2019-04-22T00:32:19.495Z,2.70
2019-04-22T00:34:48.787Z,2.50
2019-04-22T00:37:23.274Z,2.85
2019-04-22T00:39:51.830Z,2.85
2019-04-22T00:42:32.936Z,2.70
2019-04-22T00:45:00.479Z,2.92
2019-04-22T00:55:10.125Z,3.30
2019-04-22T00:57:35.739Z,2.83
2019-04-22T01:00:05.383Z,2.70
2019-04-22T01:02:42.942Z,2.80
2019-04-22T01:05:12.978Z,2.67
2019-04-22T01:07:40.581Z,2.50
2019-04-22T01:10:12.948Z,2.58
2019-04-22T01:12:42.688Z,2.58
2019-04-22T01:15:21.485Z,2.65
2019-04-22T01:17:46.455Z,2.50
2019-04-22T01:20:37.042Z,3.00
2019-04-22T01:22:46.171Z,2.60
2019-04-22T01:25:17.655Z,2.75
2019-04-22T01:27:39.251Z,2.80
2019-04-22T01:30:09.659Z,2.80
2019-04-22T01:32:36.139Z,2.67
2019-04-22T01:35:18.039Z,2.62
2019-04-22T01:37:48.438Z,2.50
2019-04-22T01:40:35.119Z,2.72
2019-04-22T01:43:08.679Z,3.08
2019-04-22T01:45:39.223Z,2.87
2019-04-22T01:48:05.267Z,2.62
2019-04-22T01:50:37.329Z,3.08
2019-04-22T01:58:05.655Z,2.70
2019-04-22T02:00:51.082Z,2.20
2019-04-22T02:03:17.791Z,2.35
2019-04-22T02:05:46.887Z,2.35
2019-04-22T02:08:25.517Z,2.75
2019-04-22T02:10:54.628Z,2.70
2019-04-22T02:13:22.036Z,2.70
2019-04-22T02:15:57.102Z,2.62
2019-04-22T02:18:23.147Z,2.10
2019-04-22T02:20:48.508Z,2.52
2019-04-22T02:23:47.273Z,2.50
2019-04-22T02:26:22.813Z,2.27
2019-04-22T02:46:41.310Z,2.40
2019-04-22T02:51:21.891Z,2.17
2019-04-22T02:54:27.074Z,2.33
2019-04-22T02:59:08.534Z,2.30
2019-04-22T03:01:30.076Z,2.00
2019-04-22T03:06:36.673Z,2.20
2019-04-22T03:09:03.476Z,2.22
2019-04-22T03:11:34.223Z,2.37
2019-04-22T03:19:22.852Z,2.10
2019-04-22T03:26:39.063Z,2.10
2019-04-22T03:29:11.306Z,2.22
2019-04-22T03:42:07.627Z,2.02
2019-04-22T03:44:38.855Z,2.12
2019-04-22T03:49:59.003Z,2.20
2019-04-22T03:57:30.280Z,2.12
2019-04-22T03:59:55.007Z,1.70
2019-04-22T04:02:21.320Z,2.20
2019-04-22T04:04:47.425Z,2.05
2019-04-22T04:07:40.495Z,1.87
2019-04-22T04:09:49.293Z,1.87
2019-04-22T04:14:58.170Z,1.77
2019-04-22T04:17:26.602Z,1.82
2019-04-22T04:20:10.622Z,1.70
2019-04-22T04:22:46.673Z,1.90
2019-04-22T04:25:08.365Z,1.90
2019-04-22T04:30:06.295Z,1.80
2019-04-22T04:35:18.942Z,1.77
2019-04-22T04:45:32.040Z,1.92
2019-04-22T04:50:09.782Z,2.00
2019-04-22T04:52:39.267Z,1.85
2019-04-22T04:58:09.586Z,2.08
2019-04-22T05:10:27.135Z,1.72
2019-04-22T05:17:54.991Z,1.82
2019-04-22T05:20:32.075Z,2.22
2019-04-22T05:22:44.743Z,1.80
2019-04-22T05:25:22.196Z,2.08
2019-04-22T05:35:26.218Z,1.67
2019-04-22T05:37:56.546Z,2.00
2019-04-22T05:42:56.088Z,1.75
2019-04-22T05:45:25.404Z,1.80
2019-04-22T05:47:56.271Z,2.15
2019-04-22T05:50:26.908Z,1.80
2019-04-22T05:53:00.476Z,1.85
2019-04-22T05:55:41.575Z,1.80
2019-04-22T05:58:08.655Z,1.90
2019-04-22T06:01:12.820Z,1.75
2019-04-22T06:03:08.530Z,1.75
2019-04-22T06:06:00.911Z,2.05
2019-04-22T06:08:19.896Z,2.02
2019-04-22T06:10:53.622Z,2.12
2019-04-22T06:13:18.137Z,2.00
2019-04-22T06:15:55.742Z,1.72
2019-04-22T06:18:31.475Z,1.67
2019-04-22T06:21:06.514Z,1.50
2019-04-22T06:23:34.539Z,1.82
2019-04-22T06:26:14.692Z,1.70
2019-04-22T06:28:48.458Z,2.30
2019-04-22T06:31:12.524Z,1.45
2019-04-22T06:33:34.143Z,1.82
2019-04-22T06:36:08.196Z,1.80
2019-04-22T06:41:18.906Z,1.90
2019-04-22T06:43:50.120Z,1.62
2019-04-22T06:46:17.299Z,1.70
2019-04-22T06:48:46.010Z,1.60
2019-04-22T06:51:24.533Z,2.12
2019-04-22T06:53:47.744Z,1.90
2019-04-22T06:56:35.592Z,1.80
2019-04-22T06:58:52.334Z,1.65
2019-04-22T07:06:35.475Z,1.67
2019-04-22T07:09:20.632Z,1.92
2019-04-22T07:11:23.754Z,2.05
2019-04-22T07:14:01.333Z,2.27
2019-04-22T07:19:09.206Z,1.70
2019-04-22T07:21:36.771Z,1.80
2019-04-22T07:24:20.042Z,1.90
2019-04-22T07:26:36.217Z,1.90
2019-04-22T07:29:07.464Z,1.90
2019-04-22T07:31:43.141Z,1.47
2019-04-22T07:34:19.637Z,2.25
2019-04-22T07:39:19.872Z,1.92
2019-04-22T07:41:44.581Z,1.98
2019-04-22T07:44:21.852Z,1.60
2019-04-22T07:49:18.264Z,1.95
2019-04-22T07:51:49.483Z,2.33
2019-04-22T07:54:20.761Z,1.70
2019-04-22T07:57:07.333Z,1.72
2019-04-22T07:59:26.389Z,1.80
2019-04-22T08:01:56.290Z,1.80
2019-04-22T08:04:35.909Z,1.82
2019-04-22T08:07:11.400Z,1.50
2019-04-22T08:09:41.786Z,1.60
2019-04-22T08:11:56.323Z,2.10
2019-04-22T08:14:35.193Z,1.80
2019-04-22T08:17:33.080Z,2.08
2019-04-22T08:19:43.208Z,2.00
2019-04-22T08:22:11.657Z,2.75
2019-04-22T08:24:41.816Z,1.87
2019-04-22T08:27:11.410Z,1.60
2019-04-22T08:29:52.204Z,1.98
2019-04-22T08:32:15.543Z,2.05
2019-04-22T08:34:42.710Z,1.95
2019-04-22T08:37:41.511Z,2.00
2019-04-22T08:39:55.131Z,2.22
2019-04-22T08:42:29.419Z,2.30
2019-04-22T08:45:07.777Z,1.87
2019-04-22T08:47:26.445Z,2.70
2019-04-22T08:52:30.362Z,2.75
2019-04-22T08:54:57.437Z,2.77
2019-04-22T08:57:40.978Z,2.55
2019-04-22T09:00:03.982Z,2.08
2019-04-22T09:02:32.452Z,2.47
2019-04-22T09:05:10.570Z,2.87
2019-04-22T09:07:31.534Z,2.55
2019-04-22T09:10:02.025Z,2.77
2019-04-22T09:15:02.446Z,2.45
2019-04-22T09:17:41.328Z,2.83
2019-04-22T09:20:13.216Z,2.83
2019-04-22T09:22:41.004Z,2.75
2019-04-22T09:25:11.732Z,2.70
2019-04-22T09:27:44.537Z,2.33
2019-04-22T09:30:22.786Z,2.90
2019-04-22T09:32:54.477Z,3.25
2019-04-22T09:35:21.373Z,2.77
2019-04-22T09:42:51.806Z,2.95
2019-04-22T09:45:21.614Z,2.65
2019-04-22T09:48:16.705Z,2.70
2019-04-22T09:50:33.263Z,2.62
2019-04-22T09:53:02.006Z,3.05
2019-04-22T09:55:41.643Z,2.77
2019-04-22T09:57:55.819Z,2.98
2019-04-22T10:00:38.761Z,2.90
2019-04-22T10:03:07.185Z,2.50
2019-04-22T10:05:41.193Z,2.72
2019-04-22T10:08:18.644Z,2.95
2019-04-22T10:10:41.789Z,2.50
2019-04-22T10:13:13.595Z,3.00
2019-04-22T10:15:39.730Z,3.08
2019-04-22T10:18:20.231Z,2.75
2019-04-22T10:20:45.921Z,2.58
2019-04-22T10:23:19.018Z,2.72
2019-04-22T10:25:45.274Z,2.80
2019-04-22T10:28:27.266Z,2.80
2019-04-22T10:31:00.389Z,2.92
2019-04-22T10:33:14.933Z,2.52
2019-04-22T10:35:28.790Z,3.08
2019-04-22T10:37:58.487Z,2.52
2019-04-22T10:40:40.771Z,2.62
2019-04-22T10:43:11.527Z,2.87
2019-04-22T10:45:41.996Z,3.58
2019-04-22T10:48:12.368Z,3.65
2019-04-22T10:50:48.547Z,2.87
2019-04-22T10:53:19.874Z,2.75
2019-04-22T10:55:51.621Z,2.65
2019-04-22T10:58:22.798Z,2.60
2019-04-22T11:00:54.108Z,2.50
2019-04-22T11:03:24.568Z,2.90
2019-04-22T11:05:54.381Z,2.15
2019-04-22T11:08:32.630Z,2.40
2019-04-22T11:11:11.941Z,2.77
2019-04-22T11:13:26.345Z,2.05
2019-04-22T11:15:56.232Z,2.70
2019-04-22T11:18:25.752Z,2.67
2019-04-22T11:20:55.737Z,2.40
2019-04-22T11:23:26.887Z,2.62
2019-04-22T11:25:57.604Z,2.45
2019-04-22T11:28:27.711Z,2.72
2019-04-22T11:30:58.714Z,2.60
2019-04-22T11:33:28.495Z,2.55
2019-04-22T11:35:58.077Z,2.30
2019-04-22T11:38:28.856Z,2.22
2019-04-22T11:41:01.114Z,2.50
2019-04-22T11:43:30.456Z,2.37
2019-04-22T11:46:00.078Z,2.35
2019-04-22T11:48:31.056Z,2.80
2019-04-22T11:51:01.947Z,2.33
2019-04-22T11:53:31.569Z,2.33
2019-04-22T11:56:02.703Z,2.60
2019-04-22T11:58:33.165Z,2.58
2019-04-22T12:01:03.159Z,2.50
2019-04-22T12:03:33.810Z,2.72
2019-04-22T12:06:03.940Z,2.00
2019-04-22T12:08:34.065Z,2.20
2019-04-22T12:11:05.972Z,2.33
2019-04-22T12:13:35.791Z,1.90
2019-04-22T12:16:07.352Z,2.60
2019-04-22T12:18:37.397Z,2.27
2019-04-22T12:21:07.101Z,2.00
2019-04-22T12:23:37.068Z,2.58
2019-04-22T12:26:12.718Z,2.50
2019-04-22T12:28:39.234Z,2.37
2019-04-22T12:31:09.494Z,2.65
2019-04-22T12:33:39.340Z,2.47
2019-04-22T12:36:11.046Z,2.62
2019-04-22T12:38:41.826Z,2.77
2019-04-22T12:41:14.044Z,2.58
2019-04-22T12:43:45.068Z,2.55
2019-04-22T12:46:18.336Z,2.90
2019-04-22T12:48:48.174Z,2.95
2019-04-22T12:51:18.876Z,3.15
2019-04-22T12:53:48.843Z,3.45
2019-04-22T12:56:19.660Z,2.60
2019-04-22T12:58:49.875Z,2.80
2019-04-22T13:01:21.129Z,3.22
2019-04-22T13:03:52.083Z,3.30
2019-04-22T13:06:21.827Z,3.05
2019-04-22T13:08:52.449Z,3.42
2019-04-22T13:11:28.409Z,3.58
2019-04-22T13:13:54.652Z,2.85
2019-04-22T13:16:25.003Z,3.92
2019-04-22T13:19:00.202Z,3.90
2019-04-22T13:21:26.918Z,3.65
2019-04-22T13:23:57.096Z,3.22
2019-04-22T13:26:27.164Z,3.45
2019-04-22T13:28:57.056Z,3.05
2019-04-22T13:31:26.897Z,3.75
2019-04-22T13:33:59.672Z,3.70
2019-04-22T13:36:29.663Z,3.20
2019-04-22T13:38:59.104Z,3.27
2019-04-22T13:41:33.912Z,3.47
2019-04-22T13:44:00.079Z,4.47
2019-04-22T13:46:31.726Z,3.72
2019-04-22T13:49:37.777Z,4.05
2019-04-22T13:52:02.361Z,3.90
2019-04-22T13:54:49.690Z,3.27
2019-04-22T13:56:55.132Z,3.35
2019-04-22T13:59:15.115Z,4.08
2019-04-22T14:01:46.227Z,4.15
2019-04-22T14:04:22.635Z,3.35
2019-04-22T14:06:52.532Z,3.55
2019-04-22T14:09:22.458Z,3.20
2019-04-22T14:11:58.295Z,3.42
2019-04-22T14:14:25.910Z,3.70
2019-04-22T14:16:55.575Z,3.42
2019-04-22T14:19:26.023Z,3.50
2019-04-22T14:21:55.727Z,3.30
2019-04-22T14:24:26.015Z,2.90
2019-04-22T14:27:13.205Z,3.08
2019-04-22T14:29:26.878Z,2.90
2019-04-22T14:32:06.932Z,2.95
2019-04-22T14:34:28.482Z,3.12
2019-04-22T14:36:59.432Z,2.95
2019-04-22T14:39:30.310Z,2.98
2019-04-22T14:42:19.572Z,3.40
2019-04-22T14:45:44.542Z,2.75
2019-04-22T14:47:26.028Z,2.98
2019-04-22T14:49:53.884Z,2.50
2019-04-22T14:52:27.674Z,3.17
2019-04-22T14:54:49.647Z,2.80
2019-04-22T14:57:07.729Z,2.90
2019-04-22T14:59:37.727Z,3.02
2019-04-22T15:02:09.764Z,2.67
2019-04-22T15:04:42.872Z,2.87
2019-04-22T15:07:12.734Z,3.22
2019-04-22T15:09:43.873Z,2.60
2019-04-22T15:12:20.691Z,2.98
2019-04-22T15:14:45.794Z,2.50
2019-04-22T15:17:38.752Z,3.10
2019-04-22T15:20:43.770Z,3.05
2019-04-22T15:23:14.727Z,3.12
2019-04-22T15:25:44.344Z,2.83
2019-04-22T15:28:15.250Z,3.20
2019-04-22T15:30:45.726Z,2.98
2019-04-22T15:33:15.415Z,3.08
2019-04-22T15:35:45.221Z,2.98
2019-04-22T15:38:15.555Z,3.45
2019-04-22T15:40:46.853Z,3.00
2019-04-22T15:43:17.070Z,3.47
2019-04-22T15:45:46.759Z,3.60
2019-04-22T15:48:16.878Z,3.00
2019-04-22T15:50:46.750Z,3.30
2019-04-22T15:53:17.901Z,3.20
2019-04-22T15:55:47.665Z,3.37
2019-04-22T15:58:17.511Z,3.17
2019-04-22T16:00:58.097Z,3.37
2019-04-22T16:03:18.737Z,3.15
2019-04-22T16:05:48.328Z,3.37
2019-04-22T16:08:19.142Z,3.55
2019-04-22T16:10:48.762Z,3.45
2019-04-22T16:13:24.385Z,3.67
2019-04-22T16:15:52.199Z,3.98
2019-04-22T16:18:22.494Z,3.67
2019-04-22T16:20:52.425Z,3.45
2019-04-22T16:23:36.596Z,3.67
2019-04-22T16:26:38.072Z,3.77
2019-04-22T16:29:09.494Z,3.60
2019-04-22T16:31:39.708Z,3.85
2019-04-22T16:34:11.275Z,3.60
2019-04-22T16:36:40.994Z,3.62
2019-04-22T16:39:13.103Z,3.62
2019-04-22T16:41:42.896Z,3.33
2019-04-22T16:44:14.232Z,3.40
2019-04-22T16:46:43.955Z,3.60
2019-04-22T16:49:13.958Z,3.80
2019-04-22T16:51:43.546Z,3.52
2019-04-22T16:54:13.838Z,3.30
2019-04-22T16:56:43.946Z,3.98
2019-04-22T16:59:14.893Z,3.00
2019-04-22T17:02:04.258Z,3.47
2019-04-22T17:05:11.486Z,3.70
2019-04-22T17:07:42.334Z,3.37
2019-04-22T17:10:13.529Z,3.25
2019-04-22T17:12:53.223Z,3.67
2019-04-22T17:15:16.824Z,3.12
2019-04-22T17:17:47.389Z,3.40
2019-04-22T17:20:17.421Z,3.42
2019-04-22T17:22:47.367Z,4.00
2019-04-22T17:25:18.267Z,3.87
2019-04-22T17:27:48.065Z,3.45
2019-04-22T17:30:18.368Z,3.35
2019-04-22T17:32:48.377Z,3.55
2019-04-22T17:35:20.000Z,3.62
2019-04-22T17:38:00.287Z,3.52
2019-04-22T17:40:38.829Z,3.30
2019-04-22T17:43:26.326Z,3.67
2019-04-22T17:46:01.635Z,3.67
2019-04-22T17:48:50.661Z,3.42
2019-04-22T17:51:29.948Z,3.30
2019-04-22T17:53:55.002Z,4.08
2019-04-22T17:56:28.243Z,3.62
2019-04-22T17:58:56.812Z,3.95
2019-04-22T18:01:25.254Z,3.95
2019-04-22T18:03:42.333Z,4.20
2019-04-22T18:06:18.815Z,4.50
2019-04-22T18:08:56.379Z,3.55
2019-04-22T18:11:33.604Z,4.00
2019-04-22T18:14:13.794Z,4.08
2019-04-22T18:16:33.695Z,3.77
2019-04-22T18:19:04.486Z,3.67
2019-04-22T18:21:30.320Z,3.87
2019-04-22T18:23:56.456Z,3.92
2019-04-22T18:26:30.682Z,3.40
2019-04-22T18:29:07.413Z,3.60
2019-04-22T18:31:31.571Z,3.65
2019-04-22T18:34:06.896Z,3.35
2019-04-22T18:36:37.241Z,3.70
2019-04-22T18:39:20.934Z,3.27
2019-04-22T18:41:44.007Z,3.83
2019-04-22T18:44:16.932Z,4.17
2019-04-22T18:46:50.392Z,3.67
2019-04-22T18:49:15.297Z,3.65
2019-04-22T18:52:01.120Z,3.75
2019-04-22T18:54:42.367Z,4.12
2019-04-22T18:57:12.302Z,3.87
2019-04-22T18:59:32.686Z,3.70
2019-04-22T19:02:01.461Z,3.30
2019-04-22T19:04:40.857Z,3.72
2019-04-22T19:07:28.652Z,3.65
2019-04-22T19:15:00.967Z,3.67
2019-04-22T19:20:13.028Z,3.90
2019-04-22T19:22:37.889Z,3.83
2019-04-22T19:24:57.954Z,3.87
2019-04-22T19:27:31.255Z,4.05
2019-04-22T19:30:04.227Z,3.90
2019-04-22T19:32:40.111Z,4.50
2019-04-22T19:35:03.772Z,5.40
2019-04-22T19:37:39.977Z,5.00
2019-04-22T19:40:34.146Z,5.83
2019-04-22T19:45:10.763Z,5.37
2019-04-22T19:47:53.219Z,6.10
2019-04-22T19:50:16.460Z,5.70
2019-04-22T19:52:43.374Z,6.50
2019-04-22T19:55:19.542Z,6.67
2019-04-22T19:57:52.582Z,6.08
2019-04-22T20:00:35.081Z,5.05
2019-04-22T20:03:49.817Z,6.00
2019-04-22T20:06:34.981Z,5.67
2019-04-22T20:09:05.731Z,6.10
2019-04-22T20:11:41.284Z,6.90
2019-04-22T20:14:12.830Z,7.10
2019-04-22T20:16:37.438Z,6.72
2019-04-22T20:19:19.168Z,6.78
2019-04-22T20:21:50.090Z,6.97
2019-04-22T20:24:04.430Z,6.90
2019-04-22T20:26:49.926Z,7.12
2019-04-22T20:29:21.037Z,7.50
2019-04-22T20:31:49.577Z,7.17
2019-04-22T20:34:38.030Z,6.62
2019-04-22T20:37:08.645Z,6.78
2019-04-22T20:39:28.846Z,6.25
2019-04-22T20:41:49.119Z,6.35
2019-04-22T20:44:32.385Z,6.60
2019-04-22T20:46:57.360Z,6.17
2019-04-22T20:49:31.016Z,6.08
2019-04-22T20:52:24.033Z,6.22
2019-04-22T20:54:28.576Z,5.42
2019-04-22T20:56:55.333Z,6.20
2019-04-22T20:59:33.253Z,5.75
2019-04-22T21:02:02.104Z,5.60
2019-04-22T21:04:26.085Z,5.75
2019-04-22T21:07:02.270Z,5.20
2019-04-22T21:09:38.282Z,4.85
2019-04-22T21:12:04.817Z,5.50
2019-04-22T21:14:41.341Z,6.00
2019-04-22T21:17:25.048Z,5.67
2019-04-22T21:20:00.824Z,5.60
2019-04-22T21:22:26.102Z,5.60
2019-04-22T21:24:53.567Z,5.95
2019-04-22T21:27:28.373Z,5.25
2019-04-22T21:29:52.135Z,6.05
2019-04-22T21:32:29.751Z,5.58
2019-04-22T21:35:07.690Z,5.37
2019-04-22T21:37:37.749Z,4.90
2019-04-22T21:40:00.428Z,4.45
2019-04-22T21:42:38.788Z,5.10
2019-04-22T21:45:05.064Z,4.95
2019-04-22T21:47:48.784Z,4.95
2019-04-22T21:50:31.130Z,5.40
2019-04-22T21:52:40.711Z,4.55
2019-04-22T21:55:16.393Z,4.25
2019-04-22T21:58:19.206Z,4.60
2019-04-22T22:01:14.084Z,4.30
2019-04-22T22:03:40.126Z,5.17
2019-04-22T22:06:02.960Z,3.95
2019-04-22T22:08:49.882Z,4.83
2019-04-22T22:11:13.362Z,4.40
2019-04-22T22:13:48.789Z,4.12
2019-04-22T22:16:13.090Z,4.72
2019-04-22T22:18:50.707Z,4.58
2019-04-22T22:21:33.640Z,4.65
2019-04-22T22:23:56.029Z,4.50
2019-04-22T22:26:15.556Z,4.35
2019-04-22T22:29:01.995Z,4.70
2019-04-22T22:31:31.617Z,4.55
2019-04-22T22:33:54.186Z,4.55
2019-04-22T22:36:23.726Z,4.72
2019-04-22T22:38:55.128Z,4.37
2019-04-22T22:41:07.959Z,4.37
2019-04-22T22:43:42.038Z,4.50
2019-04-22T22:46:18.897Z,4.47
2019-04-22T22:49:05.156Z,4.78
2019-04-22T22:51:39.991Z,4.20
2019-04-22T22:54:07.615Z,4.50
2019-04-22T22:56:42.225Z,4.08
2019-04-22T22:59:02.817Z,4.65
2019-04-22T23:01:39.715Z,4.22
2019-04-22T23:04:15.050Z,4.42
2019-04-22T23:06:45.510Z,3.95
2019-04-22T23:09:10.205Z,4.42
2019-04-22T23:12:02.182Z,3.90
2019-04-22T23:14:14.494Z,4.60
2019-04-22T23:16:33.637Z,4.05
2019-04-22T23:19:06.382Z,5.03
2019-04-22T23:21:43.307Z,4.30
2019-04-22T23:24:43.965Z,4.22
2019-04-22T23:27:19.344Z,4.30
2019-04-22T23:30:04.195Z,4.08
2019-04-22T23:32:35.484Z,4.35
2019-04-22T23:35:19.973Z,4.72
2019-04-22T23:37:50.017Z,4.15
2019-04-22T23:40:39.024Z,4.42
2019-04-22T23:43:00.204Z,3.95
2019-04-22T23:45:34.895Z,4.75
2019-04-22T23:47:49.944Z,3.85
2019-04-22T23:50:31.141Z,4.35
2019-04-22T23:53:04.837Z,3.90
2019-04-22T23:55:39.808Z,4.75
2019-04-22T23:58:07.967Z,4.17
